sensor_id;sensor_type;location;lat;lon;timestamp;P1;durP1;ratioP1;P2;durP2;ratioP2
46765;SDS011;32527;51.986;5.842;2023-08-06T00:01:52;29.98;;;28.35;;
46765;SDS011;32527;51.986;5.842;2023-08-06T00:04:18;26.48;;;24.95;;
46765;SDS011;32527;51.986;5.842;2023-08-06T00:06:44;28.38;;;26.70;;
46765;SDS011;32527;51.986;5.842;2023-08-06T00:09:10;27.27;;;25.58;;
46765;SDS011;32527;51.986;5.842;2023-08-06T00:11:36;26.92;;;25.08;;
46765;SDS011;32527;51.986;5.842;2023-08-06T00:14:02;27.95;;;25.85;;
46765;SDS011;32527;51.986;5.842;2023-08-06T00:16:28;28.38;;;26.67;;
46765;SDS011;32527;51.986;5.842;2023-08-06T00:18:54;30.58;;;28.75;;
46765;SDS011;32527;51.986;5.842;2023-08-06T00:21:20;26.77;;;25.08;;
46765;SDS011;32527;51.986;5.842;2023-08-06T00:23:46;29.88;;;28.08;;
46765;SDS011;32527;51.986;5.842;2023-08-06T00:26:12;27.38;;;25.67;;
46765;SDS011;32527;51.986;5.842;2023-08-06T00:28:38;29.45;;;27.75;;
46765;SDS011;32527;51.986;5.842;2023-08-06T00:31:04;26.13;;;24.20;;
46765;SDS011;32527;51.986;5.842;2023-08-06T00:33:30;26.77;;;25.05;;
46765;SDS011;32527;51.986;5.842;2023-08-06T00:35:57;26.05;;;24.55;;
46765;SDS011;32527;51.986;5.842;2023-08-06T00:38:23;29.13;;;27.45;;
46765;SDS011;32527;51.986;5.842;2023-08-06T00:40:49;30.80;;;28.90;;
46765;SDS011;32527;51.986;5.842;2023-08-06T00:43:15;29.08;;;27.48;;
46765;SDS011;32527;51.986;5.842;2023-08-06T00:45:41;29.23;;;27.35;;
46765;SDS011;32527;51.986;5.842;2023-08-06T00:48:07;27.35;;;25.80;;
46765;SDS011;32527;51.986;5.842;2023-08-06T00:50:34;21.83;;;20.42;;
46765;SDS011;32527;51.986;5.842;2023-08-06T00:53:00;26.67;;;25.10;;
46765;SDS011;32527;51.986;5.842;2023-08-06T00:55:26;26.17;;;24.83;;
46765;SDS011;32527;51.986;5.842;2023-08-06T00:57:53;26.33;;;24.75;;
46765;SDS011;32527;51.986;5.842;2023-08-06T01:00:21;24.65;;;23.30;;
46765;SDS011;32527;51.986;5.842;2023-08-06T01:02:48;26.83;;;25.33;;
46765;SDS011;32527;51.986;5.842;2023-08-06T01:05:15;29.77;;;28.08;;
46765;SDS011;32527;51.986;5.842;2023-08-06T01:10:30;25.55;;;23.95;;
46765;SDS011;32527;51.986;5.842;2023-08-06T01:15:46;23.88;;;22.27;;
46765;SDS011;32527;51.986;5.842;2023-08-06T01:20:39;23.52;;;22.13;;
46765;SDS011;32527;51.986;5.842;2023-08-06T01:23:06;27.13;;;25.52;;
46765;SDS011;32527;51.986;5.842;2023-08-06T01:25:33;23.02;;;21.73;;
46765;SDS011;32527;51.986;5.842;2023-08-06T01:28:04;24.23;;;22.88;;
46765;SDS011;32527;51.986;5.842;2023-08-06T01:30:37;22.75;;;21.40;;
46765;SDS011;32527;51.986;5.842;2023-08-06T01:33:05;22.30;;;20.92;;
46765;SDS011;32527;51.986;5.842;2023-08-06T01:35:34;22.50;;;21.20;;
46765;SDS011;32527;51.986;5.842;2023-08-06T01:38:01;21.02;;;19.83;;
46765;SDS011;32527;51.986;5.842;2023-08-06T01:40:29;19.73;;;18.55;;
46765;SDS011;32527;51.986;5.842;2023-08-06T01:42:57;20.38;;;19.15;;
46765;SDS011;32527;51.986;5.842;2023-08-06T01:45:23;20.55;;;19.15;;
46765;SDS011;32527;51.986;5.842;2023-08-06T01:47:49;16.65;;;15.65;;
46765;SDS011;32527;51.986;5.842;2023-08-06T01:50:15;17.30;;;16.13;;
46765;SDS011;32527;51.986;5.842;2023-08-06T01:52:41;21.63;;;20.42;;
46765;SDS011;32527;51.986;5.842;2023-08-06T01:55:07;19.90;;;18.42;;
46765;SDS011;32527;51.986;5.842;2023-08-06T01:57:34;18.05;;;16.92;;
46765;SDS011;32527;51.986;5.842;2023-08-06T02:00:00;17.83;;;16.63;;
46765;SDS011;32527;51.986;5.842;2023-08-06T02:02:26;17.55;;;16.35;;
46765;SDS011;32527;51.986;5.842;2023-08-06T02:04:52;18.40;;;17.17;;
46765;SDS011;32527;51.986;5.842;2023-08-06T02:07:18;21.52;;;19.77;;
46765;SDS011;32527;51.986;5.842;2023-08-06T02:09:44;17.10;;;15.68;;
46765;SDS011;32527;51.986;5.842;2023-08-06T02:12:10;18.58;;;17.17;;
46765;SDS011;32527;51.986;5.842;2023-08-06T02:14:36;17.50;;;16.27;;
46765;SDS011;32527;51.986;5.842;2023-08-06T02:17:02;20.10;;;18.80;;
46765;SDS011;32527;51.986;5.842;2023-08-06T02:19:28;19.58;;;18.05;;
46765;SDS011;32527;51.986;5.842;2023-08-06T02:21:54;22.67;;;20.80;;
46765;SDS011;32527;51.986;5.842;2023-08-06T02:24:20;18.58;;;17.33;;
46765;SDS011;32527;51.986;5.842;2023-08-06T02:26:47;20.33;;;18.92;;
46765;SDS011;32527;51.986;5.842;2023-08-06T02:29:15;19.00;;;17.70;;
46765;SDS011;32527;51.986;5.842;2023-08-06T02:31:42;20.92;;;19.42;;
46765;SDS011;32527;51.986;5.842;2023-08-06T02:34:08;19.95;;;18.08;;
46765;SDS011;32527;51.986;5.842;2023-08-06T02:36:35;21.70;;;20.10;;
46765;SDS011;32527;51.986;5.842;2023-08-06T02:39:01;18.98;;;17.63;;
46765;SDS011;32527;51.986;5.842;2023-08-06T02:41:28;19.85;;;18.30;;
46765;SDS011;32527;51.986;5.842;2023-08-06T02:43:56;18.55;;;17.17;;
46765;SDS011;32527;51.986;5.842;2023-08-06T02:46:22;22.90;;;21.27;;
46765;SDS011;32527;51.986;5.842;2023-08-06T02:48:48;22.17;;;20.73;;
46765;SDS011;32527;51.986;5.842;2023-08-06T02:51:14;20.70;;;18.92;;
46765;SDS011;32527;51.986;5.842;2023-08-06T02:53:41;19.05;;;17.45;;
46765;SDS011;32527;51.986;5.842;2023-08-06T02:56:10;21.38;;;19.73;;
46765;SDS011;32527;51.986;5.842;2023-08-06T02:58:48;19.02;;;17.63;;
46765;SDS011;32527;51.986;5.842;2023-08-06T03:01:25;20.90;;;19.15;;
46765;SDS011;32527;51.986;5.842;2023-08-06T03:03:57;21.55;;;19.95;;
46765;SDS011;32527;51.986;5.842;2023-08-06T03:06:29;19.27;;;17.77;;
46765;SDS011;32527;51.986;5.842;2023-08-06T03:08:57;17.58;;;16.42;;
46765;SDS011;32527;51.986;5.842;2023-08-06T03:11:24;18.85;;;17.55;;
46765;SDS011;32527;51.986;5.842;2023-08-06T03:13:55;18.95;;;17.67;;
46765;SDS011;32527;51.986;5.842;2023-08-06T03:16:21;16.20;;;14.88;;
46765;SDS011;32527;51.986;5.842;2023-08-06T03:18:47;19.58;;;18.20;;
46765;SDS011;32527;51.986;5.842;2023-08-06T03:21:13;14.68;;;13.75;;
46765;SDS011;32527;51.986;5.842;2023-08-06T03:23:39;18.17;;;16.95;;
46765;SDS011;32527;51.986;5.842;2023-08-06T03:26:06;20.10;;;18.80;;
46765;SDS011;32527;51.986;5.842;2023-08-06T03:28:32;18.67;;;17.45;;
46765;SDS011;32527;51.986;5.842;2023-08-06T03:31:03;15.80;;;14.70;;
46765;SDS011;32527;51.986;5.842;2023-08-06T03:33:47;17.88;;;16.77;;
46765;SDS011;32527;51.986;5.842;2023-08-06T03:36:16;16.83;;;15.63;;
46765;SDS011;32527;51.986;5.842;2023-08-06T03:38:42;17.05;;;15.95;;
46765;SDS011;32527;51.986;5.842;2023-08-06T03:41:10;17.90;;;16.77;;
46765;SDS011;32527;51.986;5.842;2023-08-06T03:43:37;19.10;;;17.90;;
46765;SDS011;32527;51.986;5.842;2023-08-06T03:46:07;17.27;;;16.10;;
46765;SDS011;32527;51.986;5.842;2023-08-06T03:48:33;16.80;;;15.60;;
46765;SDS011;32527;51.986;5.842;2023-08-06T03:51:00;16.98;;;15.88;;
46765;SDS011;32527;51.986;5.842;2023-08-06T03:53:27;16.65;;;15.32;;
46765;SDS011;32527;51.986;5.842;2023-08-06T03:55:53;15.18;;;14.18;;
46765;SDS011;32527;51.986;5.842;2023-08-06T03:58:21;17.30;;;16.20;;
46765;SDS011;32527;51.986;5.842;2023-08-06T04:00:47;17.55;;;16.08;;
46765;SDS011;32527;51.986;5.842;2023-08-06T04:03:13;17.65;;;16.45;;
46765;SDS011;32527;51.986;5.842;2023-08-06T04:05:40;17.35;;;16.15;;
46765;SDS011;32527;51.986;5.842;2023-08-06T04:08:06;16.52;;;15.43;;
46765;SDS011;32527;51.986;5.842;2023-08-06T04:10:32;17.05;;;15.85;;
46765;SDS011;32527;51.986;5.842;2023-08-06T04:12:59;17.38;;;16.05;;
46765;SDS011;32527;51.986;5.842;2023-08-06T04:15:26;19.00;;;17.27;;
46765;SDS011;32527;51.986;5.842;2023-08-06T04:17:52;17.38;;;16.15;;
46765;SDS011;32527;51.986;5.842;2023-08-06T04:20:18;20.63;;;19.23;;
46765;SDS011;32527;51.986;5.842;2023-08-06T04:22:44;20.27;;;18.63;;
46765;SDS011;32527;51.986;5.842;2023-08-06T04:25:10;17.55;;;16.35;;
46765;SDS011;32527;51.986;5.842;2023-08-06T04:27:36;18.13;;;16.92;;
46765;SDS011;32527;51.986;5.842;2023-08-06T04:30:07;18.67;;;17.05;;
46765;SDS011;32527;51.986;5.842;2023-08-06T04:32:35;17.75;;;16.45;;
46765;SDS011;32527;51.986;5.842;2023-08-06T04:35:01;19.20;;;17.85;;
46765;SDS011;32527;51.986;5.842;2023-08-06T04:37:27;19.98;;;18.77;;
46765;SDS011;32527;51.986;5.842;2023-08-06T04:39:54;18.80;;;17.50;;
46765;SDS011;32527;51.986;5.842;2023-08-06T04:42:20;15.88;;;14.68;;
46765;SDS011;32527;51.986;5.842;2023-08-06T04:44:46;16.20;;;14.95;;
46765;SDS011;32527;51.986;5.842;2023-08-06T04:47:13;20.13;;;18.80;;
46765;SDS011;32527;51.986;5.842;2023-08-06T04:49:39;17.83;;;16.52;;
46765;SDS011;32527;51.986;5.842;2023-08-06T04:52:05;17.65;;;16.27;;
46765;SDS011;32527;51.986;5.842;2023-08-06T04:54:31;19.13;;;17.65;;
46765;SDS011;32527;51.986;5.842;2023-08-06T04:56:57;18.55;;;17.15;;
46765;SDS011;32527;51.986;5.842;2023-08-06T04:59:23;16.98;;;15.57;;
46765;SDS011;32527;51.986;5.842;2023-08-06T05:01:49;17.63;;;16.02;;
46765;SDS011;32527;51.986;5.842;2023-08-06T05:04:15;19.67;;;18.27;;
46765;SDS011;32527;51.986;5.842;2023-08-06T05:06:41;20.80;;;19.20;;
46765;SDS011;32527;51.986;5.842;2023-08-06T05:09:08;19.25;;;17.90;;
46765;SDS011;32527;51.986;5.842;2023-08-06T05:11:34;20.58;;;19.15;;
46765;SDS011;32527;51.986;5.842;2023-08-06T05:14:00;18.48;;;16.50;;
46765;SDS011;32527;51.986;5.842;2023-08-06T05:16:26;17.35;;;15.88;;
46765;SDS011;32527;51.986;5.842;2023-08-06T05:18:52;19.67;;;18.02;;
46765;SDS011;32527;51.986;5.842;2023-08-06T05:21:18;18.85;;;17.27;;
46765;SDS011;32527;51.986;5.842;2023-08-06T05:23:44;18.77;;;17.35;;
46765;SDS011;32527;51.986;5.842;2023-08-06T05:26:10;19.55;;;17.95;;
46765;SDS011;32527;51.986;5.842;2023-08-06T05:28:36;18.42;;;16.33;;
46765;SDS011;32527;51.986;5.842;2023-08-06T05:31:02;16.85;;;15.45;;
46765;SDS011;32527;51.986;5.842;2023-08-06T05:33:29;18.30;;;17.00;;
46765;SDS011;32527;51.986;5.842;2023-08-06T05:35:55;16.50;;;15.23;;
46765;SDS011;32527;51.986;5.842;2023-08-06T05:38:21;16.83;;;15.57;;
46765;SDS011;32527;51.986;5.842;2023-08-06T05:40:47;16.75;;;15.45;;
46765;SDS011;32527;51.986;5.842;2023-08-06T05:43:14;20.38;;;18.88;;
46765;SDS011;32527;51.986;5.842;2023-08-06T05:45:43;17.13;;;15.77;;
46765;SDS011;32527;51.986;5.842;2023-08-06T05:48:10;19.40;;;18.08;;
46765;SDS011;32527;51.986;5.842;2023-08-06T05:50:36;19.33;;;17.55;;
46765;SDS011;32527;51.986;5.842;2023-08-06T05:53:02;18.80;;;17.30;;
46765;SDS011;32527;51.986;5.842;2023-08-06T05:55:28;18.42;;;17.08;;
46765;SDS011;32527;51.986;5.842;2023-08-06T05:57:56;19.85;;;18.55;;
46765;SDS011;32527;51.986;5.842;2023-08-06T06:00:22;20.80;;;19.20;;
46765;SDS011;32527;51.986;5.842;2023-08-06T06:02:48;26.40;;;24.45;;
46765;SDS011;32527;51.986;5.842;2023-08-06T06:05:14;22.85;;;21.15;;
46765;SDS011;32527;51.986;5.842;2023-08-06T06:07:40;19.65;;;18.02;;
46765;SDS011;32527;51.986;5.842;2023-08-06T06:10:06;21.98;;;20.35;;
46765;SDS011;32527;51.986;5.842;2023-08-06T06:12:32;21.20;;;19.58;;
46765;SDS011;32527;51.986;5.842;2023-08-06T06:14:58;20.13;;;18.63;;
46765;SDS011;32527;51.986;5.842;2023-08-06T06:17:26;21.92;;;20.15;;
46765;SDS011;32527;51.986;5.842;2023-08-06T06:19:52;21.23;;;19.40;;
46765;SDS011;32527;51.986;5.842;2023-08-06T06:22:18;24.00;;;22.20;;
46765;SDS011;32527;51.986;5.842;2023-08-06T06:24:44;22.05;;;20.38;;
46765;SDS011;32527;51.986;5.842;2023-08-06T06:27:10;26.02;;;23.80;;
46765;SDS011;32527;51.986;5.842;2023-08-06T06:29:36;20.77;;;19.20;;
46765;SDS011;32527;51.986;5.842;2023-08-06T06:32:02;19.05;;;17.65;;
46765;SDS011;32527;51.986;5.842;2023-08-06T06:34:28;21.35;;;19.67;;
46765;SDS011;32527;51.986;5.842;2023-08-06T06:36:54;23.15;;;21.38;;
46765;SDS011;32527;51.986;5.842;2023-08-06T06:39:20;19.33;;;17.63;;
46765;SDS011;32527;51.986;5.842;2023-08-06T06:41:47;20.10;;;18.50;;
46765;SDS011;32527;51.986;5.842;2023-08-06T06:44:22;23.80;;;21.42;;
46765;SDS011;32527;51.986;5.842;2023-08-06T06:46:48;22.88;;;21.02;;
46765;SDS011;32527;51.986;5.842;2023-08-06T06:49:14;22.08;;;20.23;;
46765;SDS011;32527;51.986;5.842;2023-08-06T06:51:41;21.83;;;20.33;;
46765;SDS011;32527;51.986;5.842;2023-08-06T06:54:07;19.73;;;18.25;;
46765;SDS011;32527;51.986;5.842;2023-08-06T06:56:33;23.27;;;21.67;;
46765;SDS011;32527;51.986;5.842;2023-08-06T06:58:59;22.17;;;20.33;;
46765;SDS011;32527;51.986;5.842;2023-08-06T07:01:25;22.45;;;20.55;;
46765;SDS011;32527;51.986;5.842;2023-08-06T07:03:51;18.92;;;17.63;;
46765;SDS011;32527;51.986;5.842;2023-08-06T07:06:17;20.80;;;19.00;;
46765;SDS011;32527;51.986;5.842;2023-08-06T07:08:43;19.77;;;18.13;;
46765;SDS011;32527;51.986;5.842;2023-08-06T07:11:10;20.08;;;18.55;;
46765;SDS011;32527;51.986;5.842;2023-08-06T07:13:36;21.45;;;19.83;;
46765;SDS011;32527;51.986;5.842;2023-08-06T07:16:02;21.08;;;19.45;;
46765;SDS011;32527;51.986;5.842;2023-08-06T07:18:28;21.30;;;19.52;;
46765;SDS011;32527;51.986;5.842;2023-08-06T07:20:54;19.35;;;17.73;;
46765;SDS011;32527;51.986;5.842;2023-08-06T07:23:24;21.48;;;19.80;;
46765;SDS011;32527;51.986;5.842;2023-08-06T07:25:50;21.70;;;20.08;;
46765;SDS011;32527;51.986;5.842;2023-08-06T07:28:16;20.95;;;19.38;;
46765;SDS011;32527;51.986;5.842;2023-08-06T07:30:43;21.50;;;19.58;;
46765;SDS011;32527;51.986;5.842;2023-08-06T07:33:09;20.00;;;18.55;;
46765;SDS011;32527;51.986;5.842;2023-08-06T07:35:36;19.67;;;18.05;;
46765;SDS011;32527;51.986;5.842;2023-08-06T07:38:02;21.98;;;20.25;;
46765;SDS011;32527;51.986;5.842;2023-08-06T07:40:28;20.73;;;19.02;;
46765;SDS011;32527;51.986;5.842;2023-08-06T07:42:54;20.88;;;19.00;;
46765;SDS011;32527;51.986;5.842;2023-08-06T07:45:21;18.17;;;16.60;;
46765;SDS011;32527;51.986;5.842;2023-08-06T07:47:47;20.25;;;18.48;;
46765;SDS011;32527;51.986;5.842;2023-08-06T07:50:13;20.23;;;18.50;;
46765;SDS011;32527;51.986;5.842;2023-08-06T07:52:39;20.85;;;19.40;;
46765;SDS011;32527;51.986;5.842;2023-08-06T07:55:05;19.17;;;17.58;;
46765;SDS011;32527;51.986;5.842;2023-08-06T07:57:31;19.75;;;18.35;;
46765;SDS011;32527;51.986;5.842;2023-08-06T07:59:59;17.92;;;16.35;;
46765;SDS011;32527;51.986;5.842;2023-08-06T08:02:25;19.15;;;17.58;;
46765;SDS011;32527;51.986;5.842;2023-08-06T08:04:51;18.13;;;16.63;;
46765;SDS011;32527;51.986;5.842;2023-08-06T08:07:18;18.88;;;17.25;;
46765;SDS011;32527;51.986;5.842;2023-08-06T08:09:44;19.55;;;18.00;;
46765;SDS011;32527;51.986;5.842;2023-08-06T08:12:10;19.58;;;17.85;;
46765;SDS011;32527;51.986;5.842;2023-08-06T08:14:36;20.70;;;19.08;;
46765;SDS011;32527;51.986;5.842;2023-08-06T08:17:03;19.92;;;18.52;;
46765;SDS011;32527;51.986;5.842;2023-08-06T08:19:30;22.13;;;20.17;;
46765;SDS011;32527;51.986;5.842;2023-08-06T08:21:56;24.92;;;22.65;;
46765;SDS011;32527;51.986;5.842;2023-08-06T08:24:22;26.38;;;24.48;;
46765;SDS011;32527;51.986;5.842;2023-08-06T08:26:51;22.45;;;20.73;;
46765;SDS011;32527;51.986;5.842;2023-08-06T08:29:18;24.95;;;23.08;;
46765;SDS011;32527;51.986;5.842;2023-08-06T08:31:45;21.85;;;20.25;;
46765;SDS011;32527;51.986;5.842;2023-08-06T08:34:14;24.30;;;22.52;;
46765;SDS011;32527;51.986;5.842;2023-08-06T08:36:40;20.98;;;19.58;;
46765;SDS011;32527;51.986;5.842;2023-08-06T08:39:06;25.23;;;23.55;;
46765;SDS011;32527;51.986;5.842;2023-08-06T08:41:32;24.90;;;23.10;;
46765;SDS011;32527;51.986;5.842;2023-08-06T08:44:02;22.25;;;20.33;;
46765;SDS011;32527;51.986;5.842;2023-08-06T08:46:31;24.83;;;23.15;;
46765;SDS011;32527;51.986;5.842;2023-08-06T08:48:58;27.58;;;25.77;;
46765;SDS011;32527;51.986;5.842;2023-08-06T08:51:25;28.90;;;27.20;;
46765;SDS011;32527;51.986;5.842;2023-08-06T08:53:53;28.88;;;27.10;;
46765;SDS011;32527;51.986;5.842;2023-08-06T08:56:22;32.38;;;30.58;;
46765;SDS011;32527;51.986;5.842;2023-08-06T08:58:49;29.23;;;27.60;;
46765;SDS011;32527;51.986;5.842;2023-08-06T09:01:15;31.63;;;29.88;;
46765;SDS011;32527;51.986;5.842;2023-08-06T09:03:42;36.38;;;34.53;;
46765;SDS011;32527;51.986;5.842;2023-08-06T09:06:10;40.58;;;38.42;;
46765;SDS011;32527;51.986;5.842;2023-08-06T09:08:38;36.75;;;34.83;;
46765;SDS011;32527;51.986;5.842;2023-08-06T09:11:08;44.53;;;42.08;;
46765;SDS011;32527;51.986;5.842;2023-08-06T09:13:37;42.10;;;39.95;;
46765;SDS011;32527;51.986;5.842;2023-08-06T09:16:04;40.15;;;37.95;;
46765;SDS011;32527;51.986;5.842;2023-08-06T09:18:30;40.47;;;38.38;;
46765;SDS011;32527;51.986;5.842;2023-08-06T09:20:57;40.03;;;38.05;;
46765;SDS011;32527;51.986;5.842;2023-08-06T09:23:32;38.15;;;36.08;;
46765;SDS011;32527;51.986;5.842;2023-08-06T09:25:59;34.90;;;32.90;;
46765;SDS011;32527;51.986;5.842;2023-08-06T09:28:36;33.25;;;31.48;;
46765;SDS011;32527;51.986;5.842;2023-08-06T09:31:07;35.80;;;34.00;;
46765;SDS011;32527;51.986;5.842;2023-08-06T09:33:35;40.88;;;38.83;;
46765;SDS011;32527;51.986;5.842;2023-08-06T09:36:10;38.75;;;36.75;;
46765;SDS011;32527;51.986;5.842;2023-08-06T09:38:37;31.85;;;30.25;;
46765;SDS011;32527;51.986;5.842;2023-08-06T09:41:05;27.00;;;25.55;;
46765;SDS011;32527;51.986;5.842;2023-08-06T09:43:39;34.78;;;33.03;;
46765;SDS011;32527;51.986;5.842;2023-08-06T09:46:11;35.88;;;34.03;;
46765;SDS011;32527;51.986;5.842;2023-08-06T09:48:44;33.25;;;31.40;;
46765;SDS011;32527;51.986;5.842;2023-08-06T09:51:11;37.33;;;35.42;;
46765;SDS011;32527;51.986;5.842;2023-08-06T09:53:39;36.58;;;34.20;;
46765;SDS011;32527;51.986;5.842;2023-08-06T09:56:06;30.90;;;29.00;;
46765;SDS011;32527;51.986;5.842;2023-08-06T09:58:32;27.23;;;25.55;;
46765;SDS011;32527;51.986;5.842;2023-08-06T10:00:59;30.42;;;28.55;;
46765;SDS011;32527;51.986;5.842;2023-08-06T10:03:25;30.50;;;28.50;;
46765;SDS011;32527;51.986;5.842;2023-08-06T10:05:51;24.45;;;22.85;;
46765;SDS011;32527;51.986;5.842;2023-08-06T10:08:17;28.55;;;26.55;;
46765;SDS011;32527;51.986;5.842;2023-08-06T10:10:43;29.23;;;27.33;;
46765;SDS011;32527;51.986;5.842;2023-08-06T10:13:10;28.35;;;26.48;;
46765;SDS011;32527;51.986;5.842;2023-08-06T10:15:37;30.17;;;28.10;;
46765;SDS011;32527;51.986;5.842;2023-08-06T10:18:03;31.70;;;29.65;;
46765;SDS011;32527;51.986;5.842;2023-08-06T10:20:34;27.88;;;26.40;;
46765;SDS011;32527;51.986;5.842;2023-08-06T10:23:00;21.77;;;20.58;;
46765;SDS011;32527;51.986;5.842;2023-08-06T10:25:29;27.08;;;25.77;;
46765;SDS011;32527;51.986;5.842;2023-08-06T10:27:56;27.88;;;26.52;;
46765;SDS011;32527;51.986;5.842;2023-08-06T10:30:26;23.30;;;22.20;;
46765;SDS011;32527;51.986;5.842;2023-08-06T10:32:54;23.35;;;22.23;;
46765;SDS011;32527;51.986;5.842;2023-08-06T10:38:19;19.90;;;18.90;;
46765;SDS011;32527;51.986;5.842;2023-08-06T10:45:51;20.95;;;19.95;;
46765;SDS011;32527;51.986;5.842;2023-08-06T10:48:28;22.77;;;21.65;;
46765;SDS011;32527;51.986;5.842;2023-08-06T10:50:54;20.70;;;19.70;;
46765;SDS011;32527;51.986;5.842;2023-08-06T10:53:20;17.33;;;16.42;;
46765;SDS011;32527;51.986;5.842;2023-08-06T10:55:47;17.48;;;16.48;;
46765;SDS011;32527;51.986;5.842;2023-08-06T10:58:15;16.73;;;15.82;;
46765;SDS011;32527;51.986;5.842;2023-08-06T11:00:44;19.85;;;18.58;;
46765;SDS011;32527;51.986;5.842;2023-08-06T11:03:10;17.40;;;16.40;;
46765;SDS011;32527;51.986;5.842;2023-08-06T11:05:36;19.63;;;18.55;;
46765;SDS011;32527;51.986;5.842;2023-08-06T11:08:02;18.55;;;17.55;;
46765;SDS011;32527;51.986;5.842;2023-08-06T11:10:28;21.13;;;20.02;;
46765;SDS011;32527;51.986;5.842;2023-08-06T11:12:54;17.05;;;16.15;;
46765;SDS011;32527;51.986;5.842;2023-08-06T11:15:20;17.77;;;16.80;;
46765;SDS011;32527;51.986;5.842;2023-08-06T11:17:46;19.65;;;18.67;;
46765;SDS011;32527;51.986;5.842;2023-08-06T11:20:13;16.50;;;15.55;;
46765;SDS011;32527;51.986;5.842;2023-08-06T11:22:39;21.40;;;20.33;;
46765;SDS011;32527;51.986;5.842;2023-08-06T11:25:06;18.52;;;17.52;;
46765;SDS011;32527;51.986;5.842;2023-08-06T11:27:32;15.20;;;14.32;;
46765;SDS011;32527;51.986;5.842;2023-08-06T11:29:58;17.13;;;16.15;;
46765;SDS011;32527;51.986;5.842;2023-08-06T11:32:24;16.95;;;15.80;;
46765;SDS011;32527;51.986;5.842;2023-08-06T11:34:52;14.00;;;13.10;;
46765;SDS011;32527;51.986;5.842;2023-08-06T11:37:23;14.45;;;13.55;;
46765;SDS011;32527;51.986;5.842;2023-08-06T11:39:50;18.98;;;17.88;;
46765;SDS011;32527;51.986;5.842;2023-08-06T11:42:16;15.77;;;14.88;;
46765;SDS011;32527;51.986;5.842;2023-08-06T11:44:42;16.00;;;15.07;;
46765;SDS011;32527;51.986;5.842;2023-08-06T11:47:12;14.13;;;13.32;;
46765;SDS011;32527;51.986;5.842;2023-08-06T11:52:16;18.73;;;17.63;;
46765;SDS011;32527;51.986;5.842;2023-08-06T11:54:44;17.00;;;16.00;;
46765;SDS011;32527;51.986;5.842;2023-08-06T11:57:10;17.98;;;16.83;;
46765;SDS011;32527;51.986;5.842;2023-08-06T11:59:37;16.48;;;15.55;;
46765;SDS011;32527;51.986;5.842;2023-08-06T12:02:04;17.40;;;15.93;;
46765;SDS011;32527;51.986;5.842;2023-08-06T12:04:31;17.52;;;16.52;;
46765;SDS011;32527;51.986;5.842;2023-08-06T12:07:16;18.27;;;17.17;;
46765;SDS011;32527;51.986;5.842;2023-08-06T12:09:42;16.42;;;15.52;;
46765;SDS011;32527;51.986;5.842;2023-08-06T12:12:08;19.13;;;17.85;;
46765;SDS011;32527;51.986;5.842;2023-08-06T12:14:36;18.27;;;16.95;;
46765;SDS011;32527;51.986;5.842;2023-08-06T12:17:02;17.58;;;16.30;;
46765;SDS011;32527;51.986;5.842;2023-08-06T12:19:28;14.73;;;13.85;;
46765;SDS011;32527;51.986;5.842;2023-08-06T12:21:55;16.67;;;15.68;;
46765;SDS011;32527;51.986;5.842;2023-08-06T12:24:21;17.52;;;16.40;;
46765;SDS011;32527;51.986;5.842;2023-08-06T12:26:47;17.30;;;16.30;;
46765;SDS011;32527;51.986;5.842;2023-08-06T12:29:13;17.55;;;16.50;;
46765;SDS011;32527;51.986;5.842;2023-08-06T12:31:39;16.17;;;15.20;;
46765;SDS011;32527;51.986;5.842;2023-08-06T12:34:05;15.43;;;14.38;;
46765;SDS011;32527;51.986;5.842;2023-08-06T12:36:31;17.20;;;16.15;;
46765;SDS011;32527;51.986;5.842;2023-08-06T12:38:57;15.95;;;14.90;;
46765;SDS011;32527;51.986;5.842;2023-08-06T12:41:23;19.45;;;18.35;;
46765;SDS011;32527;51.986;5.842;2023-08-06T12:43:49;16.33;;;15.40;;
46765;SDS011;32527;51.986;5.842;2023-08-06T12:46:15;19.40;;;18.02;;
46765;SDS011;32527;51.986;5.842;2023-08-06T12:48:41;17.50;;;16.42;;
46765;SDS011;32527;51.986;5.842;2023-08-06T12:51:08;17.33;;;16.38;;
46765;SDS011;32527;51.986;5.842;2023-08-06T12:53:34;16.63;;;15.63;;
46765;SDS011;32527;51.986;5.842;2023-08-06T12:56:00;17.02;;;16.02;;
46765;SDS011;32527;51.986;5.842;2023-08-06T12:58:26;14.82;;;14.00;;
46765;SDS011;32527;51.986;5.842;2023-08-06T13:00:52;16.20;;;15.10;;
46765;SDS011;32527;51.986;5.842;2023-08-06T13:03:19;14.60;;;13.70;;
46765;SDS011;32527;51.986;5.842;2023-08-06T13:05:45;17.67;;;16.55;;
46765;SDS011;32527;51.986;5.842;2023-08-06T13:08:11;14.55;;;13.75;;
46765;SDS011;32527;51.986;5.842;2023-08-06T13:10:37;13.90;;;13.10;;
46765;SDS011;32527;51.986;5.842;2023-08-06T13:13:03;15.73;;;14.70;;
46765;SDS011;32527;51.986;5.842;2023-08-06T13:15:30;15.15;;;14.15;;
46765;SDS011;32527;51.986;5.842;2023-08-06T13:17:56;13.10;;;12.13;;
46765;SDS011;32527;51.986;5.842;2023-08-06T13:20:22;16.60;;;15.60;;
46765;SDS011;32527;51.986;5.842;2023-08-06T13:22:48;16.83;;;15.82;;
46765;SDS011;32527;51.986;5.842;2023-08-06T13:25:18;15.07;;;14.18;;
46765;SDS011;32527;51.986;5.842;2023-08-06T13:27:44;16.55;;;15.43;;
46765;SDS011;32527;51.986;5.842;2023-08-06T13:30:11;13.57;;;12.68;;
46765;SDS011;32527;51.986;5.842;2023-08-06T13:32:37;13.20;;;12.40;;
46765;SDS011;32527;51.986;5.842;2023-08-06T13:35:06;16.50;;;15.50;;
46765;SDS011;32527;51.986;5.842;2023-08-06T13:37:32;14.07;;;13.20;;
46765;SDS011;32527;51.986;5.842;2023-08-06T13:39:58;12.48;;;11.48;;
46765;SDS011;32527;51.986;5.842;2023-08-06T13:42:24;13.20;;;12.30;;
46765;SDS011;32527;51.986;5.842;2023-08-06T13:44:50;12.90;;;11.70;;
46765;SDS011;32527;51.986;5.842;2023-08-06T13:47:16;14.88;;;14.02;;
46765;SDS011;32527;51.986;5.842;2023-08-06T13:49:42;14.75;;;13.75;;
46765;SDS011;32527;51.986;5.842;2023-08-06T13:52:08;13.45;;;12.65;;
46765;SDS011;32527;51.986;5.842;2023-08-06T13:54:34;13.32;;;12.48;;
46765;SDS011;32527;51.986;5.842;2023-08-06T13:57:00;12.77;;;12.00;;
46765;SDS011;32527;51.986;5.842;2023-08-06T13:59:26;14.15;;;13.25;;
46765;SDS011;32527;51.986;5.842;2023-08-06T14:01:52;14.45;;;13.60;;
46765;SDS011;32527;51.986;5.842;2023-08-06T14:04:18;12.27;;;11.48;;
46765;SDS011;32527;51.986;5.842;2023-08-06T14:06:46;14.48;;;13.57;;
46765;SDS011;32527;51.986;5.842;2023-08-06T14:09:12;12.15;;;11.35;;
46765;SDS011;32527;51.986;5.842;2023-08-06T14:11:43;16.08;;;15.02;;
46765;SDS011;32527;51.986;5.842;2023-08-06T14:14:09;13.85;;;12.95;;
46765;SDS011;32527;51.986;5.842;2023-08-06T14:16:35;11.90;;;10.98;;
46765;SDS011;32527;51.986;5.842;2023-08-06T14:19:01;14.15;;;12.88;;
46765;SDS011;32527;51.986;5.842;2023-08-06T14:21:27;13.05;;;12.18;;
46765;SDS011;32527;51.986;5.842;2023-08-06T14:23:53;12.05;;;11.25;;
46765;SDS011;32527;51.986;5.842;2023-08-06T14:26:19;11.73;;;10.93;;
46765;SDS011;32527;51.986;5.842;2023-08-06T14:28:45;11.23;;;10.43;;
46765;SDS011;32527;51.986;5.842;2023-08-06T14:31:11;11.20;;;10.20;;
46765;SDS011;32527;51.986;5.842;2023-08-06T14:33:37;12.65;;;11.85;;
46765;SDS011;32527;51.986;5.842;2023-08-06T14:36:03;11.45;;;10.50;;
46765;SDS011;32527;51.986;5.842;2023-08-06T14:38:30;12.65;;;11.77;;